sensor_id;sensor_type;location;lat;lon;timestamp;temperature;humidity
4279;DHT22;2153;47.744;10.580;2023-04-03T00:00:38;1.20;99.90
4279;DHT22;2153;47.744;10.580;2023-04-03T00:03:05;1.20;99.90
4279;DHT22;2153;47.744;10.580;2023-04-03T00:05:32;1.10;99.90
4279;DHT22;2153;47.744;10.580;2023-04-03T00:08:00;1.10;99.90
4279;DHT22;2153;47.744;10.580;2023-04-03T00:10:27;1.10;99.90
4279;DHT22;2153;47.744;10.580;2023-04-03T00:12:54;1.10;99.90
4279;DHT22;2153;47.744;10.580;2023-04-03T00:15:20;1.10;99.90
4279;DHT22;2153;47.744;10.580;2023-04-03T00:17:47;1.10;99.90
4279;DHT22;2153;47.744;10.580;2023-04-03T00:20:14;1.10;99.90
4279;DHT22;2153;47.744;10.580;2023-04-03T00:22:41;1.10;99.90
4279;DHT22;2153;47.744;10.580;2023-04-03T00:25:09;1.00;99.90
4279;DHT22;2153;47.744;10.580;2023-04-03T00:27:36;1.00;99.90
4279;DHT22;2153;47.744;10.580;2023-04-03T00:30:06;1.00;99.90
4279;DHT22;2153;47.744;10.580;2023-04-03T00:32:33;0.90;99.90
4279;DHT22;2153;47.744;10.580;2023-04-03T00:35:00;1.00;99.90
4279;DHT22;2153;47.744;10.580;2023-04-03T00:37:27;0.90;99.90
4279;DHT22;2153;47.744;10.580;2023-04-03T00:39:53;0.90;99.90
4279;DHT22;2153;47.744;10.580;2023-04-03T00:42:21;1.00;99.90
4279;DHT22;2153;47.744;10.580;2023-04-03T00:45:24;0.90;99.90
4279;DHT22;2153;47.744;10.580;2023-04-03T00:47:51;0.90;99.90
4279;DHT22;2153;47.744;10.580;2023-04-03T00:50:18;0.90;99.90
4279;DHT22;2153;47.744;10.580;2023-04-03T00:52:45;0.90;99.90
4279;DHT22;2153;47.744;10.580;2023-04-03T00:55:15;0.80;99.90
4279;DHT22;2153;47.744;10.580;2023-04-03T00:57:45;0.70;99.90
4279;DHT22;2153;47.744;10.580;2023-04-03T01:00:15;0.70;99.90
4279;DHT22;2153;47.744;10.580;2023-04-03T01:02:43;0.60;99.90
4279;DHT22;2153;47.744;10.580;2023-04-03T01:05:10;0.60;99.90
4279;DHT22;2153;47.744;10.580;2023-04-03T01:07:37;0.60;99.90
4279;DHT22;2153;47.744;10.580;2023-04-03T01:10:06;0.50;99.90
4279;DHT22;2153;47.744;10.580;2023-04-03T01:12:35;0.60;99.90
4279;DHT22;2153;47.744;10.580;2023-04-03T01:15:07;0.60;99.90
4279;DHT22;2153;47.744;10.580;2023-04-03T01:17:37;0.60;99.90
4279;DHT22;2153;47.744;10.580;2023-04-03T01:23:23;0.50;99.90
4279;DHT22;2153;47.744;10.580;2023-04-03T01:25:53;0.50;99.90
4279;DHT22;2153;47.744;10.580;2023-04-03T01:28:23;0.50;99.90
4279;DHT22;2153;47.744;10.580;2023-04-03T01:30:59;0.50;99.90
4279;DHT22;2153;47.744;10.580;2023-04-03T01:33:28;0.60;99.90
4279;DHT22;2153;47.744;10.580;2023-04-03T01:35:55;0.60;99.90
4279;DHT22;2153;47.744;10.580;2023-04-03T01:38:23;0.60;99.90
4279;DHT22;2153;47.744;10.580;2023-04-03T01:40:49;0.70;99.90
4279;DHT22;2153;47.744;10.580;2023-04-03T01:43:16;0.70;99.90
4279;DHT22;2153;47.744;10.580;2023-04-03T01:45:43;0.70;99.90
4279;DHT22;2153;47.744;10.580;2023-04-03T01:48:10;0.70;99.90
4279;DHT22;2153;47.744;10.580;2023-04-03T01:50:38;0.70;99.90
4279;DHT22;2153;47.744;10.580;2023-04-03T01:53:05;0.70;99.90
4279;DHT22;2153;47.744;10.580;2023-04-03T01:55:31;0.70;99.90
4279;DHT22;2153;47.744;10.580;2023-04-03T01:57:58;0.70;99.90
4279;DHT22;2153;47.744;10.580;2023-04-03T02:00:25;0.70;99.90
4279;DHT22;2153;47.744;10.580;2023-04-03T02:02:52;0.70;99.90
4279;DHT22;2153;47.744;10.580;2023-04-03T02:05:19;0.70;99.90
4279;DHT22;2153;47.744;10.580;2023-04-03T02:07:47;0.60;99.90
4279;DHT22;2153;47.744;10.580;2023-04-03T02:10:14;0.70;99.90
4279;DHT22;2153;47.744;10.580;2023-04-03T02:12:41;0.70;99.90
4279;DHT22;2153;47.744;10.580;2023-04-03T02:15:08;0.70;99.90
4279;DHT22;2153;47.744;10.580;2023-04-03T02:17:35;0.70;99.90
4279;DHT22;2153;47.744;10.580;2023-04-03T02:20:03;0.70;99.90
4279;DHT22;2153;47.744;10.580;2023-04-03T02:22:30;0.70;99.90
4279;DHT22;2153;47.744;10.580;2023-04-03T02:24:59;0.70;99.90
4279;DHT22;2153;47.744;10.580;2023-04-03T02:27:26;0.80;99.90
4279;DHT22;2153;47.744;10.580;2023-04-03T02:29:52;0.70;99.90
4279;DHT22;2153;47.744;10.580;2023-04-03T02:32:19;0.70;99.90
4279;DHT22;2153;47.744;10.580;2023-04-03T02:34:46;0.70;99.90
4279;DHT22;2153;47.744;10.580;2023-04-03T02:37:13;0.70;99.90
4279;DHT22;2153;47.744;10.580;2023-04-03T02:39:39;0.80;99.90
4279;DHT22;2153;47.744;10.580;2023-04-03T02:42:07;0.80;99.90
4279;DHT22;2153;47.744;10.580;2023-04-03T02:44:34;0.70;99.90
4279;DHT22;2153;47.744;10.580;2023-04-03T02:47:01;0.70;99.90
4279;DHT22;2153;47.744;10.580;2023-04-03T02:49:28;0.80;99.90
4279;DHT22;2153;47.744;10.580;2023-04-03T02:51:55;0.80;99.90
4279;DHT22;2153;47.744;10.580;2023-04-03T02:54:22;0.80;99.90
4279;DHT22;2153;47.744;10.580;2023-04-03T02:56:49;0.70;99.90
4279;DHT22;2153;47.744;10.580;2023-04-03T02:59:18;0.70;99.90
4279;DHT22;2153;47.744;10.580;2023-04-03T03:01:45;0.70;99.90
4279;DHT22;2153;47.744;10.580;2023-04-03T03:04:12;0.60;99.90
4279;DHT22;2153;47.744;10.580;2023-04-03T03:06:38;0.60;99.90
4279;DHT22;2153;47.744;10.580;2023-04-03T03:09:05;0.50;99.90
4279;DHT22;2153;47.744;10.580;2023-04-03T03:11:32;0.50;99.90
4279;DHT22;2153;47.744;10.580;2023-04-03T03:13:59;0.60;99.90
4279;DHT22;2153;47.744;10.580;2023-04-03T03:16:27;0.60;99.90
4279;DHT22;2153;47.744;10.580;2023-04-03T03:18:53;0.60;99.90
4279;DHT22;2153;47.744;10.580;2023-04-03T03:21:20;0.50;99.90
4279;DHT22;2153;47.744;10.580;2023-04-03T03:23:47;0.60;99.90
4279;DHT22;2153;47.744;10.580;2023-04-03T03:26:14;0.60;99.90
4279;DHT22;2153;47.744;10.580;2023-04-03T03:28:40;0.50;99.90
4279;DHT22;2153;47.744;10.580;2023-04-03T03:31:08;0.50;99.90
4279;DHT22;2153;47.744;10.580;2023-04-03T03:33:37;0.50;99.90
4279;DHT22;2153;47.744;10.580;2023-04-03T03:36:04;0.50;99.90
4279;DHT22;2153;47.744;10.580;2023-04-03T03:38:31;0.50;99.90
4279;DHT22;2153;47.744;10.580;2023-04-03T03:40:57;0.40;99.90
4279;DHT22;2153;47.744;10.580;2023-04-03T03:43:24;0.30;99.90
4279;DHT22;2153;47.744;10.580;2023-04-03T03:45:52;0.30;99.90
4279;DHT22;2153;47.744;10.580;2023-04-03T03:48:19;0.40;99.90
4279;DHT22;2153;47.744;10.580;2023-04-03T03:50:49;0.50;99.90
4279;DHT22;2153;47.744;10.580;2023-04-03T03:53:16;0.50;99.90
4279;DHT22;2153;47.744;10.580;2023-04-03T03:55:43;0.50;99.90
4279;DHT22;2153;47.744;10.580;2023-04-03T03:58:10;0.50;99.90
4279;DHT22;2153;47.744;10.580;2023-04-03T04:00:36;0.50;99.90
4279;DHT22;2153;47.744;10.580;2023-04-03T04:03:03;0.50;99.90
4279;DHT22;2153;47.744;10.580;2023-04-03T04:05:30;0.40;99.90
4279;DHT22;2153;47.744;10.580;2023-04-03T04:07:59;0.40;99.90
4279;DHT22;2153;47.744;10.580;2023-04-03T04:10:25;0.40;99.90
4279;DHT22;2153;47.744;10.580;2023-04-03T04:12:52;0.30;99.90
4279;DHT22;2153;47.744;10.580;2023-04-03T04:15:19;0.30;99.90
4279;DHT22;2153;47.744;10.580;2023-04-03T04:17:47;0.30;99.90
4279;DHT22;2153;47.744;10.580;2023-04-03T04:20:14;0.30;99.90
4279;DHT22;2153;47.744;10.580;2023-04-03T04:22:40;0.30;99.90
4279;DHT22;2153;47.744;10.580;2023-04-03T04:25:09;0.40;99.90
4279;DHT22;2153;47.744;10.580;2023-04-03T04:27:35;0.30;99.90
4279;DHT22;2153;47.744;10.580;2023-04-03T04:30:03;0.30;99.90
4279;DHT22;2153;47.744;10.580;2023-04-03T04:32:30;0.30;99.90
4279;DHT22;2153;47.744;10.580;2023-04-03T04:34:57;0.40;99.90
4279;DHT22;2153;47.744;10.580;2023-04-03T04:37:24;0.30;99.90
4279;DHT22;2153;47.744;10.580;2023-04-03T04:39:51;0.30;99.90
4279;DHT22;2153;47.744;10.580;2023-04-03T04:42:19;0.40;99.90
4279;DHT22;2153;47.744;10.580;2023-04-03T04:44:45;0.40;99.90
4279;DHT22;2153;47.744;10.580;2023-04-03T04:47:12;0.50;99.90
4279;DHT22;2153;47.744;10.580;2023-04-03T04:49:39;0.60;99.90
4279;DHT22;2153;47.744;10.580;2023-04-03T04:52:06;0.60;99.90
4279;DHT22;2153;47.744;10.580;2023-04-03T04:54:32;0.70;99.90
4279;DHT22;2153;47.744;10.580;2023-04-03T04:56:59;0.70;99.90
4279;DHT22;2153;47.744;10.580;2023-04-03T04:59:27;0.70;99.90
4279;DHT22;2153;47.744;10.580;2023-04-03T05:01:54;0.60;99.90
4279;DHT22;2153;47.744;10.580;2023-04-03T05:04:21;0.60;99.90
4279;DHT22;2153;47.744;10.580;2023-04-03T05:06:47;0.50;99.90
4279;DHT22;2153;47.744;10.580;2023-04-03T05:09:14;0.60;99.90
4279;DHT22;2153;47.744;10.580;2023-04-03T05:11:41;0.50;99.90
4279;DHT22;2153;47.744;10.580;2023-04-03T05:14:08;0.40;99.90
4279;DHT22;2153;47.744;10.580;2023-04-03T05:16:36;0.40;99.90
4279;DHT22;2153;47.744;10.580;2023-04-03T05:19:03;0.30;99.90
4279;DHT22;2153;47.744;10.580;2023-04-03T05:21:30;0.20;99.90
4279;DHT22;2153;47.744;10.580;2023-04-03T05:23:58;0.20;99.90
4279;DHT22;2153;47.744;10.580;2023-04-03T05:26:28;0.20;99.90
4279;DHT22;2153;47.744;10.580;2023-04-03T05:28:54;0.10;99.90
4279;DHT22;2153;47.744;10.580;2023-04-03T05:31:22;0.10;99.90
4279;DHT22;2153;47.744;10.580;2023-04-03T05:33:50;0.10;99.90
4279;DHT22;2153;47.744;10.580;2023-04-03T05:36:17;0.10;99.90
4279;DHT22;2153;47.744;10.580;2023-04-03T05:38:43;0.10;99.90
4279;DHT22;2153;47.744;10.580;2023-04-03T05:41:10;0.10;99.90
4279;DHT22;2153;47.744;10.580;2023-04-03T05:43:37;0.10;99.90
4279;DHT22;2153;47.744;10.580;2023-04-03T05:46:08;0.20;99.90
4279;DHT22;2153;47.744;10.580;2023-04-03T05:48:35;0.20;99.90
4279;DHT22;2153;47.744;10.580;2023-04-03T05:51:04;0.20;99.90
4279;DHT22;2153;47.744;10.580;2023-04-03T05:53:33;0.20;99.90
4279;DHT22;2153;47.744;10.580;2023-04-03T05:56:00;0.20;99.90
4279;DHT22;2153;47.744;10.580;2023-04-03T05:58:27;0.30;99.90
4279;DHT22;2153;47.744;10.580;2023-04-03T06:00:54;0.20;99.90
4279;DHT22;2153;47.744;10.580;2023-04-03T06:03:21;0.30;99.90
4279;DHT22;2153;47.744;10.580;2023-04-03T06:05:47;0.40;99.90
4279;DHT22;2153;47.744;10.580;2023-04-03T06:08:16;0.30;99.90
4279;DHT22;2153;47.744;10.580;2023-04-03T06:10:42;0.20;99.90
4279;DHT22;2153;47.744;10.580;2023-04-03T06:13:09;0.30;99.90
4279;DHT22;2153;47.744;10.580;2023-04-03T06:15:36;0.30;99.90
4279;DHT22;2153;47.744;10.580;2023-04-03T06:18:03;0.40;99.90
4279;DHT22;2153;47.744;10.580;2023-04-03T06:20:30;0.40;99.90
4279;DHT22;2153;47.744;10.580;2023-04-03T06:22:57;0.40;99.90
4279;DHT22;2153;47.744;10.580;2023-04-03T06:25:25;0.40;99.90
4279;DHT22;2153;47.744;10.580;2023-04-03T06:27:52;0.40;99.90
4279;DHT22;2153;47.744;10.580;2023-04-03T06:30:21;0.30;99.90
4279;DHT22;2153;47.744;10.580;2023-04-03T06:32:48;0.30;99.90
4279;DHT22;2153;47.744;10.580;2023-04-03T06:35:15;0.20;99.90
4279;DHT22;2153;47.744;10.580;2023-04-03T06:37:41;0.30;99.90
4279;DHT22;2153;47.744;10.580;2023-04-03T06:40:17;0.30;99.90
4279;DHT22;2153;47.744;10.580;2023-04-03T06:42:46;0.30;99.90
4279;DHT22;2153;47.744;10.580;2023-04-03T06:45:13;0.30;99.90
4279;DHT22;2153;47.744;10.580;2023-04-03T06:47:40;0.20;99.90
4279;DHT22;2153;47.744;10.580;2023-04-03T06:50:07;0.20;99.90
4279;DHT22;2153;47.744;10.580;2023-04-03T06:52:36;0.20;99.90
4279;DHT22;2153;47.744;10.580;2023-04-03T06:55:05;0.30;99.90
4279;DHT22;2153;47.744;10.580;2023-04-03T06:57:32;0.30;99.90
4279;DHT22;2153;47.744;10.580;2023-04-03T07:00:00;0.30;99.90
4279;DHT22;2153;47.744;10.580;2023-04-03T07:02:28;0.20;99.90
4279;DHT22;2153;47.744;10.580;2023-04-03T07:04:55;0.20;99.90
4279;DHT22;2153;47.744;10.580;2023-04-03T07:07:22;0.20;99.90
4279;DHT22;2153;47.744;10.580;2023-04-03T07:09:48;0.10;99.90
4279;DHT22;2153;47.744;10.580;2023-04-03T07:12:15;0.10;99.90
4279;DHT22;2153;47.744;10.580;2023-04-03T07:14:42;0.20;99.90
4279;DHT22;2153;47.744;10.580;2023-04-03T07:17:10;0.20;99.90
4279;DHT22;2153;47.744;10.580;2023-04-03T07:19:37;0.30;99.90
4279;DHT22;2153;47.744;10.580;2023-04-03T07:22:03;0.40;99.90
4279;DHT22;2153;47.744;10.580;2023-04-03T07:24:30;0.40;99.90
4279;DHT22;2153;47.744;10.580;2023-04-03T07:26:57;0.40;99.90
4279;DHT22;2153;47.744;10.580;2023-04-03T07:29:24;0.50;99.90
4279;DHT22;2153;47.744;10.580;2023-04-03T07:31:50;0.40;99.90
4279;DHT22;2153;47.744;10.580;2023-04-03T07:34:19;0.50;99.90
4279;DHT22;2153;47.744;10.580;2023-04-03T07:36:46;0.50;99.90
4279;DHT22;2153;47.744;10.580;2023-04-03T07:39:12;0.50;99.90
4279;DHT22;2153;47.744;10.580;2023-04-03T07:41:39;0.40;99.90
4279;DHT22;2153;47.744;10.580;2023-04-03T07:44:06;0.30;99.90
4279;DHT22;2153;47.744;10.580;2023-04-03T07:46:35;0.40;99.90
4279;DHT22;2153;47.744;10.580;2023-04-03T07:49:01;0.50;99.90
4279;DHT22;2153;47.744;10.580;2023-04-03T07:51:30;0.40;99.90
4279;DHT22;2153;47.744;10.580;2023-04-03T07:53:56;0.30;99.90
4279;DHT22;2153;47.744;10.580;2023-04-03T07:56:24;0.40;99.90
4279;DHT22;2153;47.744;10.580;2023-04-03T07:58:51;0.30;99.90
4279;DHT22;2153;47.744;10.580;2023-04-03T08:01:19;0.30;99.90
4279;DHT22;2153;47.744;10.580;2023-04-03T08:03:46;0.30;99.90
4279;DHT22;2153;47.744;10.580;2023-04-03T08:06:12;0.30;99.90
4279;DHT22;2153;47.744;10.580;2023-04-03T08:08:41;0.40;99.90
4279;DHT22;2153;47.744;10.580;2023-04-03T08:11:10;0.40;99.90
4279;DHT22;2153;47.744;10.580;2023-04-03T08:13:37;0.40;99.90
4279;DHT22;2153;47.744;10.580;2023-04-03T08:16:09;0.40;99.90
4279;DHT22;2153;47.744;10.580;2023-04-03T08:18:37;0.40;99.90
4279;DHT22;2153;47.744;10.580;2023-04-03T08:21:06;0.30;99.90
4279;DHT22;2153;47.744;10.580;2023-04-03T08:23:33;0.30;99.90
4279;DHT22;2153;47.744;10.580;2023-04-03T08:26:07;0.40;99.90
4279;DHT22;2153;47.744;10.580;2023-04-03T08:28:33;0.50;99.90
4279;DHT22;2153;47.744;10.580;2023-04-03T08:31:03;0.40;99.90
4279;DHT22;2153;47.744;10.580;2023-04-03T08:33:31;0.40;99.90
4279;DHT22;2153;47.744;10.580;2023-04-03T08:35:57;0.40;99.90
4279;DHT22;2153;47.744;10.580;2023-04-03T08:38:25;0.50;99.90
4279;DHT22;2153;47.744;10.580;2023-04-03T08:41:00;0.50;99.90
4279;DHT22;2153;47.744;10.580;2023-04-03T08:43:36;0.50;99.90
4279;DHT22;2153;47.744;10.580;2023-04-03T08:46:06;0.50;99.90
4279;DHT22;2153;47.744;10.580;2023-04-03T08:48:39;0.50;99.90
4279;DHT22;2153;47.744;10.580;2023-04-03T08:51:12;0.60;99.90
4279;DHT22;2153;47.744;10.580;2023-04-03T08:53:43;0.70;99.90
4279;DHT22;2153;47.744;10.580;2023-04-03T08:56:11;0.70;99.90
4279;DHT22;2153;47.744;10.580;2023-04-03T08:58:46;0.70;99.90
4279;DHT22;2153;47.744;10.580;2023-04-03T09:01:19;0.80;99.90
4279;DHT22;2153;47.744;10.580;2023-04-03T09:03:46;0.80;99.90
4279;DHT22;2153;47.744;10.580;2023-04-03T09:06:15;0.90;99.90
4279;DHT22;2153;47.744;10.580;2023-04-03T09:08:45;1.00;99.90
4279;DHT22;2153;47.744;10.580;2023-04-03T09:11:21;0.90;99.90
4279;DHT22;2153;47.744;10.580;2023-04-03T09:13:54;1.10;99.90
4279;DHT22;2153;47.744;10.580;2023-04-03T09:16:33;1.10;99.90
4279;DHT22;2153;47.744;10.580;2023-04-03T09:19:09;1.30;99.90
4279;DHT22;2153;47.744;10.580;2023-04-03T09:21:39;1.30;99.90
4279;DHT22;2153;47.744;10.580;2023-04-03T09:24:10;1.20;99.90
4279;DHT22;2153;47.744;10.580;2023-04-03T09:26:42;1.40;99.90
4279;DHT22;2153;47.744;10.580;2023-04-03T09:29:16;1.40;99.90
4279;DHT22;2153;47.744;10.580;2023-04-03T09:31:44;1.70;99.90
4279;DHT22;2153;47.744;10.580;2023-04-03T09:34:17;2.00;99.90
4279;DHT22;2153;47.744;10.580;2023-04-03T09:36:48;1.90;99.90
4279;DHT22;2153;47.744;10.580;2023-04-03T09:39:17;1.60;99.90
4279;DHT22;2153;47.744;10.580;2023-04-03T09:41:58;1.70;99.90
4279;DHT22;2153;47.744;10.580;2023-04-03T09:44:29;1.70;99.90
4279;DHT22;2153;47.744;10.580;2023-04-03T09:46:56;1.60;99.90
4279;DHT22;2153;47.744;10.580;2023-04-03T09:49:23;1.60;99.90
4279;DHT22;2153;47.744;10.580;2023-04-03T09:51:50;1.50;99.90
4279;DHT22;2153;47.744;10.580;2023-04-03T09:54:33;1.60;99.90
4279;DHT22;2153;47.744;10.580;2023-04-03T09:57:06;1.70;99.90
4279;DHT22;2153;47.744;10.580;2023-04-03T09:59:35;1.70;99.90
4279;DHT22;2153;47.744;10.580;2023-04-03T10:02:28;2.10;99.90
4279;DHT22;2153;47.744;10.580;2023-04-03T10:04:57;2.40;99.90
4279;DHT22;2153;47.744;10.580;2023-04-03T10:07:29;2.30;99.90
4279;DHT22;2153;47.744;10.580;2023-04-03T10:09:58;2.20;99.90
4279;DHT22;2153;47.744;10.580;2023-04-03T10:12:25;2.10;99.90
4279;DHT22;2153;47.744;10.580;2023-04-03T10:14:57;2.30;99.90
4279;DHT22;2153;47.744;10.580;2023-04-03T10:17:32;2.20;99.90
4279;DHT22;2153;47.744;10.580;2023-04-03T10:20:07;2.20;99.90
4279;DHT22;2153;47.744;10.580;2023-04-03T10:22:40;2.10;99.90
4279;DHT22;2153;47.744;10.580;2023-04-03T10:25:15;2.30;99.90
4279;DHT22;2153;47.744;10.580;2023-04-03T10:27:51;2.40;99.90
4279;DHT22;2153;47.744;10.580;2023-04-03T10:30:39;2.30;99.90
4279;DHT22;2153;47.744;10.580;2023-04-03T10:33:20;2.40;99.90
4279;DHT22;2153;47.744;10.580;2023-04-03T10:35:59;2.60;99.90
4279;DHT22;2153;47.744;10.580;2023-04-03T10:38:33;2.60;99.90
4279;DHT22;2153;47.744;10.580;2023-04-03T10:41:05;2.80;99.90
4279;DHT22;2153;47.744;10.580;2023-04-03T10:43:40;2.90;99.90
4279;DHT22;2153;47.744;10.580;2023-04-03T10:46:12;3.00;99.90
4279;DHT22;2153;47.744;10.580;2023-04-03T10:48:52;3.00;99.90
4279;DHT22;2153;47.744;10.580;2023-04-03T10:51:29;3.00;99.90
4279;DHT22;2153;47.744;10.580;2023-04-03T10:54:01;3.20;99.90
4279;DHT22;2153;47.744;10.580;2023-04-03T10:56:37;3.00;99.90
4279;DHT22;2153;47.744;10.580;2023-04-03T10:59:16;3.00;99.90
4279;DHT22;2153;47.744;10.580;2023-04-03T11:01:48;2.90;99.90
4279;DHT22;2153;47.744;10.580;2023-04-03T11:04:17;2.90;99.90
4279;DHT22;2153;47.744;10.580;2023-04-03T11:06:50;3.30;99.90
4279;DHT22;2153;47.744;10.580;2023-04-03T11:09:22;3.50;99.90
4279;DHT22;2153;47.744;10.580;2023-04-03T11:11:51;3.80;99.90
4279;DHT22;2153;47.744;10.580;2023-04-03T11:14:26;3.80;99.90
4279;DHT22;2153;47.744;10.580;2023-04-03T11:17:03;3.70;99.90
4279;DHT22;2153;47.744;10.580;2023-04-03T11:19:34;3.10;99.90
4279;DHT22;2153;47.744;10.580;2023-04-03T11:22:09;3.20;99.90
4279;DHT22;2153;47.744;10.580;2023-04-03T11:24:39;3.70;99.90
4279;DHT22;2153;47.744;10.580;2023-04-03T11:27:15;4.00;99.90
4279;DHT22;2153;47.744;10.580;2023-04-03T11:29:44;3.80;99.90
4279;DHT22;2153;47.744;10.580;2023-04-03T11:32:36;3.90;99.90
4279;DHT22;2153;47.744;10.580;2023-04-03T11:35:08;4.10;99.90
4279;DHT22;2153;47.744;10.580;2023-04-03T11:37:39;3.90;99.90
4279;DHT22;2153;47.744;10.580;2023-04-03T11:40:08;3.80;99.90
4279;DHT22;2153;47.744;10.580;2023-04-03T11:42:42;3.50;99.90
4279;DHT22;2153;47.744;10.580;2023-04-03T11:45:25;3.50;99.90
4279;DHT22;2153;47.744;10.580;2023-04-03T11:47:55;3.70;99.90
4279;DHT22;2153;47.744;10.580;2023-04-03T11:50:32;4.50;99.90
4279;DHT22;2153;47.744;10.580;2023-04-03T11:53:30;3.70;99.90
4279;DHT22;2153;47.744;10.580;2023-04-03T11:56:26;3.90;99.90
4279;DHT22;2153;47.744;10.580;2023-04-03T11:59:19;3.80;99.90
4279;DHT22;2153;47.744;10.580;2023-04-03T12:01:48;4.40;99.90
4279;DHT22;2153;47.744;10.580;2023-04-03T12:04:18;4.80;99.90
4279;DHT22;2153;47.744;10.580;2023-04-03T12:06:53;4.40;99.90
4279;DHT22;2153;47.744;10.580;2023-04-03T12:12:27;3.90;99.90
4279;DHT22;2153;47.744;10.580;2023-04-03T12:14:54;3.90;99.90
4279;DHT22;2153;47.744;10.580;2023-04-03T12:17:25;4.10;99.90
4279;DHT22;2153;47.744;10.580;2023-04-03T12:19:54;4.20;99.90
4279;DHT22;2153;47.744;10.580;2023-04-03T12:22:21;4.10;99.90
4279;DHT22;2153;47.744;10.580;2023-04-03T12:24:50;4.00;99.90
4279;DHT22;2153;47.744;10.580;2023-04-03T12:27:38;3.90;99.90
4279;DHT22;2153;47.744;10.580;2023-04-03T12:30:21;4.00;99.90
4279;DHT22;2153;47.744;10.580;2023-04-03T12:33:02;3.90;99.90
4279;DHT22;2153;47.744;10.580;2023-04-03T12:35:36;3.50;99.90
4279;DHT22;2153;47.744;10.580;2023-04-03T12:38:33;3.70;99.90
4279;DHT22;2153;47.744;10.580;2023-04-03T12:41:25;3.30;99.90
4279;DHT22;2153;47.744;10.580;2023-04-03T12:44:17;3.30;99.90
4279;DHT22;2153;47.744;10.580;2023-04-03T12:46:48;3.60;99.90
4279;DHT22;2153;47.744;10.580;2023-04-03T12:49:30;3.10;99.90
4279;DHT22;2153;47.744;10.580;2023-04-03T12:51:59;3.40;99.90
4279;DHT22;2153;47.744;10.580;2023-04-03T12:54:30;3.30;99.90
4279;DHT22;2153;47.744;10.580;2023-04-03T12:57:12;3.50;99.90
4279;DHT22;2153;47.744;10.580;2023-04-03T12:59:39;3.50;99.90
4279;DHT22;2153;47.744;10.580;2023-04-03T13:02:20;3.30;99.90
4279;DHT22;2153;47.744;10.580;2023-04-03T13:04:49;3.20;99.90
4279;DHT22;2153;47.744;10.580;2023-04-03T13:07:22;3.30;99.90
4279;DHT22;2153;47.744;10.580;2023-04-03T13:09:58;3.10;99.90
4279;DHT22;2153;47.744;10.580;2023-04-03T13:12:26;3.60;99.90
4279;DHT22;2153;47.744;10.580;2023-04-03T13:14:54;3.60;99.90
4279;DHT22;2153;47.744;10.580;2023-04-03T13:17:22;3.80;99.90
4279;DHT22;2153;47.744;10.580;2023-04-03T13:19:49;4.20;99.90
4279;DHT22;2153;47.744;10.580;2023-04-03T13:22:27;4.20;99.90
4279;DHT22;2153;47.744;10.580;2023-04-03T13:24:55;4.70;99.90
4279;DHT22;2153;47.744;10.580;2023-04-03T13:27:24;4.90;99.90
4279;DHT22;2153;47.744;10.580;2023-04-03T13:29:53;4.90;99.90
4279;DHT22;2153;47.744;10.580;2023-04-03T13:32:22;4.70;99.90
4279;DHT22;2153;47.744;10.580;2023-04-03T13:34:49;4.10;99.90
4279;DHT22;2153;47.744;10.580;2023-04-03T13:37:22;3.70;99.90
4279;DHT22;2153;47.744;10.580;2023-04-03T13:39:59;3.10;99.90
4279;DHT22;2153;47.744;10.580;2023-04-03T13:42:29;2.60;99.90
4279;DHT22;2153;47.744;10.580;2023-04-03T13:45:18;2.40;99.90
4279;DHT22;2153;47.744;10.580;2023-04-03T13:47:47;2.40;99.90
4279;DHT22;2153;47.744;10.580;2023-04-03T13:50:17;2.40;99.90
4279;DHT22;2153;47.744;10.580;2023-04-03T13:52:47;2.20;99.90
4279;DHT22;2153;47.744;10.580;2023-04-03T13:55:21;2.10;99.90
4279;DHT22;2153;47.744;10.580;2023-04-03T13:57:50;2.00;99.90
4279;DHT22;2153;47.744;10.580;2023-04-03T14:00:37;2.10;99.90
4279;DHT22;2153;47.744;10.580;2023-04-03T14:03:13;2.30;99.90
4279;DHT22;2153;47.744;10.580;2023-04-03T14:05:40;2.30;99.90
4279;DHT22;2153;47.744;10.580;2023-04-03T14:08:08;2.40;99.90
4279;DHT22;2153;47.744;10.580;2023-04-03T14:10:35;2.40;99.90
4279;DHT22;2153;47.744;10.580;2023-04-03T14:13:03;2.20;99.90
4279;DHT22;2153;47.744;10.580;2023-04-03T14:15:30;2.00;99.90
4279;DHT22;2153;47.744;10.580;2023-04-03T14:17:58;1.90;99.90
4279;DHT22;2153;47.744;10.580;2023-04-03T14:20:26;1.80;99.90
4279;DHT22;2153;47.744;10.580;2023-04-03T14:22:53;1.90;99.90
4279;DHT22;2153;47.744;10.580;2023-04-03T14:25:22;2.00;99.90
4279;DHT22;2153;47.744;10.580;2023-04-03T14:27:50;2.10;99.90
4279;DHT22;2153;47.744;10.580;2023-04-03T14:30:20;2.20;99.90
4279;DHT22;2153;47.744;10.580;2023-04-03T14:32:47;2.20;99.90
4279;DHT22;2153;47.744;10.580;2023-04-03T14:35:14;2.30;99.90
4279;DHT22;2153;47.744;10.580;2023-04-03T14:37:42;2.40;99.90
4279;DHT22;2153;47.744;10.580;2023-04-03T14:40:13;2.20;99.90
4279;DHT22;2153;47.744;10.580;2023-04-03T14:42:41;2.10;99.90
4279;DHT22;2153;47.744;10.580;2023-04-03T14:45:11;2.10;99.90
4279;DHT22;2153;47.744;10.580;2023-04-03T14:47:42;2.00;99.90
4279;DHT22;2153;47.744;10.580;2023-04-03T14:50:13;2.10;99.90
4279;DHT22;2153;47.744;10.580;2023-04-03T14:52:41;2.10;99.90
4279;DHT22;2153;47.744;10.580;2023-04-03T14:55:08;2.00;99.90
4279;DHT22;2153;47.744;10.580;2023-04-03T14:57:38;2.00;99.90
4279;DHT22;2153;47.744;10.580;2023-04-03T15:00:13;2.00;99.90
4279;DHT22;2153;47.744;10.580;2023-04-03T15:02:40;2.00;99.90
4279;DHT22;2153;47.744;10.580;2023-04-03T15:05:09;2.10;99.90
4279;DHT22;2153;47.744;10.580;2023-04-03T15:07:37;2.10;99.90
4279;DHT22;2153;47.744;10.580;2023-04-03T15:10:15;2.20;99.90
4279;DHT22;2153;47.744;10.580;2023-04-03T15:12:42;2.10;99.90
4279;DHT22;2153;47.744;10.580;2023-04-03T15:15:13;2.00;99.90
4279;DHT22;2153;47.744;10.580;2023-04-03T15:17:41;2.00;99.90
4279;DHT22;2153;47.744;10.580;2023-04-03T15:20:12;2.10;99.90
4279;DHT22;2153;47.744;10.580;2023-04-03T15:22:40;2.30;99.90
4279;DHT22;2153;47.744;10.580;2023-04-03T15:25:07;2.30;99.90
4279;DHT22;2153;47.744;10.580;2023-04-03T15:27:34;2.40;99.90
4279;DHT22;2153;47.744;10.580;2023-04-03T15:30:01;2.30;99.90
4279;DHT22;2153;47.744;10.580;2023-04-03T15:32:29;2.30;99.90
4279;DHT22;2153;47.744;10.580;2023-04-03T15:34:57;2.30;99.90
4279;DHT22;2153;47.744;10.580;2023-04-03T15:37:24;2.40;99.90
4279;DHT22;2153;47.744;10.580;2023-04-03T15:39:51;2.40;99.90
4279;DHT22;2153;47.744;10.580;2023-04-03T15:42:17;2.40;99.90
4279;DHT22;2153;47.744;10.580;2023-04-03T15:44:44;2.40;99.90
4279;DHT22;2153;47.744;10.580;2023-04-03T15:47:11;2.40;99.90
4279;DHT22;2153;47.744;10.580;2023-04-03T15:49:39;2.40;99.90
4279;DHT22;2153;47.744;10.580;2023-04-03T15:52:06;2.30;99.90
4279;DHT22;2153;47.744;10.580;2023-04-03T15:54:33;2.30;99.90
4279;DHT22;2153;47.744;10.580;2023-04-03T15:57:00;2.50;99.90
4279;DHT22;2153;47.744;10.580;2023-04-03T15:59:26;2.60;99.90
4279;DHT22;2153;47.744;10.580;2023-04-03T16:01:54;2.70;99.90
4279;DHT22;2153;47.744;10.580;2023-04-03T16:04:21;2.60;99.90
4279;DHT22;2153;47.744;10.580;2023-04-03T16:06:50;2.60;99.90
4279;DHT22;2153;47.744;10.580;2023-04-03T16:09:17;2.50;99.90
4279;DHT22;2153;47.744;10.580;2023-04-03T16:11:44;2.40;99.90
4279;DHT22;2153;47.744;10.580;2023-04-03T16:14:11;2.60;99.90
4279;DHT22;2153;47.744;10.580;2023-04-03T16:16:38;2.60;99.90
4279;DHT22;2153;47.744;10.580;2023-04-03T16:19:05;2.70;99.90
4279;DHT22;2153;47.744;10.580;2023-04-03T16:21:32;2.70;99.90
4279;DHT22;2153;47.744;10.580;2023-04-03T16:24:01;2.50;99.90